sensor_id;sensor_type;location;lat;lon;timestamp;P1;durP1;ratioP1;P2;durP2;ratioP2
19889;SDS011;10107;51.198;6.824;2023-02-04T00:00:09;12.60;;;3.20;;
19889;SDS011;10107;51.198;6.824;2023-02-04T00:04:13;25.25;;;4.03;;
19889;SDS011;10107;51.198;6.824;2023-02-04T00:08:16;11.07;;;2.92;;
19889;SDS011;10107;51.198;6.824;2023-02-04T00:12:18;12.68;;;3.05;;
19889;SDS011;10107;51.198;6.824;2023-02-04T00:16:20;13.40;;;3.33;;
19889;SDS011;10107;51.198;6.824;2023-02-04T00:20:22;10.38;;;3.35;;
19889;SDS011;10107;51.198;6.824;2023-02-04T00:24:25;12.88;;;3.10;;
19889;SDS011;10107;51.198;6.824;2023-02-04T00:28:27;11.80;;;3.50;;
19889;SDS011;10107;51.198;6.824;2023-02-04T00:32:29;21.02;;;3.97;;
19889;SDS011;10107;51.198;6.824;2023-02-04T00:36:31;11.18;;;3.55;;
19889;SDS011;10107;51.198;6.824;2023-02-04T00:40:34;12.88;;;3.35;;
19889;SDS011;10107;51.198;6.824;2023-02-04T00:44:36;11.73;;;3.30;;
19889;SDS011;10107;51.198;6.824;2023-02-04T00:48:37;11.40;;;2.75;;
19889;SDS011;10107;51.198;6.824;2023-02-04T00:52:39;16.17;;;3.55;;
19889;SDS011;10107;51.198;6.824;2023-02-04T00:56:43;8.25;;;2.75;;
19889;SDS011;10107;51.198;6.824;2023-02-04T01:00:46;11.07;;;3.05;;
19889;SDS011;10107;51.198;6.824;2023-02-04T01:04:48;8.32;;;2.35;;
19889;SDS011;10107;51.198;6.824;2023-02-04T01:08:51;11.03;;;2.53;;
19889;SDS011;10107;51.198;6.824;2023-02-04T01:12:54;13.70;;;3.13;;
19889;SDS011;10107;51.198;6.824;2023-02-04T01:16:56;11.40;;;3.30;;
19889;SDS011;10107;51.198;6.824;2023-02-04T01:20:59;12.45;;;2.97;;
19889;SDS011;10107;51.198;6.824;2023-02-04T01:25:01;15.60;;;3.08;;
19889;SDS011;10107;51.198;6.824;2023-02-04T01:29:16;12.27;;;3.15;;
19889;SDS011;10107;51.198;6.824;2023-02-04T01:33:18;18.98;;;3.60;;
19889;SDS011;10107;51.198;6.824;2023-02-04T01:37:20;14.63;;;3.55;;
19889;SDS011;10107;51.198;6.824;2023-02-04T01:41:22;11.57;;;2.83;;
19889;SDS011;10107;51.198;6.824;2023-02-04T01:45:25;10.57;;;3.00;;
19889;SDS011;10107;51.198;6.824;2023-02-04T01:49:29;9.95;;;2.88;;
19889;SDS011;10107;51.198;6.824;2023-02-04T01:53:31;10.23;;;2.53;;
19889;SDS011;10107;51.198;6.824;2023-02-04T01:57:34;11.10;;;3.10;;
19889;SDS011;10107;51.198;6.824;2023-02-04T02:01:39;10.38;;;2.75;;
19889;SDS011;10107;51.198;6.824;2023-02-04T02:05:43;10.50;;;2.83;;
19889;SDS011;10107;51.198;6.824;2023-02-04T02:09:47;10.93;;;2.92;;
19889;SDS011;10107;51.198;6.824;2023-02-04T02:13:48;9.93;;;2.80;;
19889;SDS011;10107;51.198;6.824;2023-02-04T02:17:51;10.38;;;3.00;;
19889;SDS011;10107;51.198;6.824;2023-02-04T02:21:55;12.30;;;3.28;;
19889;SDS011;10107;51.198;6.824;2023-02-04T02:26:05;13.25;;;2.90;;
19889;SDS011;10107;51.198;6.824;2023-02-04T02:30:11;12.70;;;3.35;;
19889;SDS011;10107;51.198;6.824;2023-02-04T02:34:16;12.93;;;3.20;;
19889;SDS011;10107;51.198;6.824;2023-02-04T02:38:18;12.68;;;3.38;;
19889;SDS011;10107;51.198;6.824;2023-02-04T02:42:22;12.93;;;3.15;;
19889;SDS011;10107;51.198;6.824;2023-02-04T02:46:24;11.15;;;2.65;;
19889;SDS011;10107;51.198;6.824;2023-02-04T02:50:27;9.45;;;3.05;;
19889;SDS011;10107;51.198;6.824;2023-02-04T02:54:32;13.00;;;2.95;;
19889;SDS011;10107;51.198;6.824;2023-02-04T02:58:39;15.00;;;2.92;;
19889;SDS011;10107;51.198;6.824;2023-02-04T03:02:41;10.43;;;2.63;;
19889;SDS011;10107;51.198;6.824;2023-02-04T03:06:43;6.95;;;2.20;;
19889;SDS011;10107;51.198;6.824;2023-02-04T03:10:46;9.35;;;2.13;;
19889;SDS011;10107;51.198;6.824;2023-02-04T03:14:50;9.35;;;2.60;;
19889;SDS011;10107;51.198;6.824;2023-02-04T03:18:52;10.68;;;2.70;;
19889;SDS011;10107;51.198;6.824;2023-02-04T03:22:53;12.90;;;2.88;;
19889;SDS011;10107;51.198;6.824;2023-02-04T03:26:57;10.52;;;2.45;;
19889;SDS011;10107;51.198;6.824;2023-02-04T03:31:00;9.35;;;2.38;;
19889;SDS011;10107;51.198;6.824;2023-02-04T03:35:02;9.85;;;2.35;;
19889;SDS011;10107;51.198;6.824;2023-02-04T03:39:04;8.75;;;2.53;;
19889;SDS011;10107;51.198;6.824;2023-02-04T03:43:06;14.40;;;2.75;;
19889;SDS011;10107;51.198;6.824;2023-02-04T03:47:09;14.25;;;2.78;;
19889;SDS011;10107;51.198;6.824;2023-02-04T03:51:11;10.38;;;2.72;;
19889;SDS011;10107;51.198;6.824;2023-02-04T03:55:13;14.13;;;3.13;;
19889;SDS011;10107;51.198;6.824;2023-02-04T03:59:14;10.15;;;3.08;;
19889;SDS011;10107;51.198;6.824;2023-02-04T04:03:17;11.40;;;2.47;;
19889;SDS011;10107;51.198;6.824;2023-02-04T04:07:19;11.13;;;3.15;;
19889;SDS011;10107;51.198;6.824;2023-02-04T04:11:21;12.77;;;2.90;;
19889;SDS011;10107;51.198;6.824;2023-02-04T04:15:23;11.85;;;3.35;;
19889;SDS011;10107;51.198;6.824;2023-02-04T04:19:28;11.63;;;2.70;;
19889;SDS011;10107;51.198;6.824;2023-02-04T04:23:31;8.40;;;2.42;;
19889;SDS011;10107;51.198;6.824;2023-02-04T04:27:33;10.55;;;2.33;;
19889;SDS011;10107;51.198;6.824;2023-02-04T04:31:35;13.63;;;3.00;;
19889;SDS011;10107;51.198;6.824;2023-02-04T04:35:38;12.25;;;3.35;;
19889;SDS011;10107;51.198;6.824;2023-02-04T04:39:39;10.07;;;2.60;;
19889;SDS011;10107;51.198;6.824;2023-02-04T04:43:41;12.23;;;2.83;;
19889;SDS011;10107;51.198;6.824;2023-02-04T04:47:43;8.93;;;2.50;;
19889;SDS011;10107;51.198;6.824;2023-02-04T04:51:46;12.55;;;2.70;;
19889;SDS011;10107;51.198;6.824;2023-02-04T04:55:47;16.90;;;3.45;;
19889;SDS011;10107;51.198;6.824;2023-02-04T04:59:49;9.38;;;2.80;;
19889;SDS011;10107;51.198;6.824;2023-02-04T05:03:51;12.13;;;2.90;;
19889;SDS011;10107;51.198;6.824;2023-02-04T05:07:54;10.95;;;2.78;;
19889;SDS011;10107;51.198;6.824;2023-02-04T05:11:56;10.23;;;2.90;;
19889;SDS011;10107;51.198;6.824;2023-02-04T05:15:58;12.82;;;2.97;;
19889;SDS011;10107;51.198;6.824;2023-02-04T05:20:00;11.57;;;2.90;;
19889;SDS011;10107;51.198;6.824;2023-02-04T05:24:03;11.90;;;2.78;;
19889;SDS011;10107;51.198;6.824;2023-02-04T05:28:06;10.38;;;2.97;;
19889;SDS011;10107;51.198;6.824;2023-02-04T05:32:07;7.78;;;2.50;;
19889;SDS011;10107;51.198;6.824;2023-02-04T05:36:09;6.47;;;2.28;;
19889;SDS011;10107;51.198;6.824;2023-02-04T05:40:12;11.70;;;2.75;;
19889;SDS011;10107;51.198;6.824;2023-02-04T05:44:14;10.27;;;3.30;;
19889;SDS011;10107;51.198;6.824;2023-02-04T05:48:16;10.13;;;3.20;;
19889;SDS011;10107;51.198;6.824;2023-02-04T05:52:19;12.45;;;3.05;;
19889;SDS011;10107;51.198;6.824;2023-02-04T05:56:23;10.57;;;2.63;;
19889;SDS011;10107;51.198;6.824;2023-02-04T06:04:27;17.30;;;3.80;;
19889;SDS011;10107;51.198;6.824;2023-02-04T06:08:29;10.38;;;3.03;;
19889;SDS011;10107;51.198;6.824;2023-02-04T06:12:32;11.05;;;2.70;;
19889;SDS011;10107;51.198;6.824;2023-02-04T06:16:34;11.32;;;3.58;;
19889;SDS011;10107;51.198;6.824;2023-02-04T06:20:36;14.30;;;3.65;;
19889;SDS011;10107;51.198;6.824;2023-02-04T06:24:37;13.77;;;4.03;;
19889;SDS011;10107;51.198;6.824;2023-02-04T06:28:40;14.77;;;3.63;;
19889;SDS011;10107;51.198;6.824;2023-02-04T06:32:42;7.47;;;2.67;;
19889;SDS011;10107;51.198;6.824;2023-02-04T06:36:44;11.25;;;3.30;;
19889;SDS011;10107;51.198;6.824;2023-02-04T06:40:45;7.20;;;3.08;;
19889;SDS011;10107;51.198;6.824;2023-02-04T06:44:53;10.07;;;3.15;;
19889;SDS011;10107;51.198;6.824;2023-02-04T06:48:55;8.63;;;2.90;;
19889;SDS011;10107;51.198;6.824;2023-02-04T06:52:57;8.38;;;3.00;;
19889;SDS011;10107;51.198;6.824;2023-02-04T06:56:58;11.25;;;3.42;;
19889;SDS011;10107;51.198;6.824;2023-02-04T07:01:07;9.43;;;3.30;;
19889;SDS011;10107;51.198;6.824;2023-02-04T07:05:08;10.65;;;3.20;;
19889;SDS011;10107;51.198;6.824;2023-02-04T07:09:10;11.23;;;3.70;;
19889;SDS011;10107;51.198;6.824;2023-02-04T07:13:12;9.65;;;3.20;;
19889;SDS011;10107;51.198;6.824;2023-02-04T07:17:14;8.77;;;3.10;;
19889;SDS011;10107;51.198;6.824;2023-02-04T07:21:16;13.30;;;3.30;;
19889;SDS011;10107;51.198;6.824;2023-02-04T07:25:18;7.63;;;3.17;;
19889;SDS011;10107;51.198;6.824;2023-02-04T07:29:19;9.38;;;3.13;;
19889;SDS011;10107;51.198;6.824;2023-02-04T07:33:23;10.85;;;3.85;;
19889;SDS011;10107;51.198;6.824;2023-02-04T07:37:24;14.98;;;3.55;;
19889;SDS011;10107;51.198;6.824;2023-02-04T07:41:26;13.35;;;3.55;;
19889;SDS011;10107;51.198;6.824;2023-02-04T07:45:27;11.23;;;3.55;;
19889;SDS011;10107;51.198;6.824;2023-02-04T07:49:30;12.07;;;3.70;;
19889;SDS011;10107;51.198;6.824;2023-02-04T07:53:32;8.87;;;3.60;;
19889;SDS011;10107;51.198;6.824;2023-02-04T07:57:34;9.25;;;3.05;;
19889;SDS011;10107;51.198;6.824;2023-02-04T08:01:36;14.75;;;3.13;;
19889;SDS011;10107;51.198;6.824;2023-02-04T08:05:39;10.23;;;3.03;;
19889;SDS011;10107;51.198;6.824;2023-02-04T08:09:40;18.30;;;4.25;;
19889;SDS011;10107;51.198;6.824;2023-02-04T08:13:42;12.02;;;4.05;;
19889;SDS011;10107;51.198;6.824;2023-02-04T08:17:44;9.85;;;3.22;;
19889;SDS011;10107;51.198;6.824;2023-02-04T08:21:46;8.18;;;3.13;;
19889;SDS011;10107;51.198;6.824;2023-02-04T08:25:48;11.05;;;4.40;;
19889;SDS011;10107;51.198;6.824;2023-02-04T08:29:50;11.30;;;3.80;;
19889;SDS011;10107;51.198;6.824;2023-02-04T08:33:52;15.77;;;4.15;;
19889;SDS011;10107;51.198;6.824;2023-02-04T08:37:55;12.52;;;4.43;;
19889;SDS011;10107;51.198;6.824;2023-02-04T08:41:56;22.73;;;6.63;;
19889;SDS011;10107;51.198;6.824;2023-02-04T08:45:59;13.43;;;4.60;;
19889;SDS011;10107;51.198;6.824;2023-02-04T08:50:01;17.83;;;5.47;;
19889;SDS011;10107;51.198;6.824;2023-02-04T08:54:05;14.05;;;5.43;;
19889;SDS011;10107;51.198;6.824;2023-02-04T08:58:06;18.60;;;3.87;;
19889;SDS011;10107;51.198;6.824;2023-02-04T09:02:08;16.00;;;4.25;;
19889;SDS011;10107;51.198;6.824;2023-02-04T09:06:10;14.27;;;4.47;;
19889;SDS011;10107;51.198;6.824;2023-02-04T09:10:13;10.93;;;3.88;;
19889;SDS011;10107;51.198;6.824;2023-02-04T09:14:15;12.20;;;4.43;;
19889;SDS011;10107;51.198;6.824;2023-02-04T09:18:17;15.13;;;4.10;;
19889;SDS011;10107;51.198;6.824;2023-02-04T09:22:21;15.82;;;5.13;;
19889;SDS011;10107;51.198;6.824;2023-02-04T09:26:24;18.55;;;6.07;;
19889;SDS011;10107;51.198;6.824;2023-02-04T09:30:25;18.92;;;6.93;;
19889;SDS011;10107;51.198;6.824;2023-02-04T09:34:27;18.02;;;6.15;;
19889;SDS011;10107;51.198;6.824;2023-02-04T09:38:29;14.95;;;5.95;;
19889;SDS011;10107;51.198;6.824;2023-02-04T09:42:32;10.95;;;4.78;;
19889;SDS011;10107;51.198;6.824;2023-02-04T09:46:34;18.15;;;5.72;;
19889;SDS011;10107;51.198;6.824;2023-02-04T09:50:35;10.00;;;4.05;;
19889;SDS011;10107;51.198;6.824;2023-02-04T09:54:37;16.70;;;5.65;;
19889;SDS011;10107;51.198;6.824;2023-02-04T09:58:40;13.23;;;4.93;;
19889;SDS011;10107;51.198;6.824;2023-02-04T10:02:42;18.60;;;5.50;;
19889;SDS011;10107;51.198;6.824;2023-02-04T10:06:44;19.38;;;7.13;;
19889;SDS011;10107;51.198;6.824;2023-02-04T10:10:47;13.85;;;5.03;;
19889;SDS011;10107;51.198;6.824;2023-02-04T10:14:51;20.00;;;6.18;;
19889;SDS011;10107;51.198;6.824;2023-02-04T10:18:52;18.27;;;5.13;;
19889;SDS011;10107;51.198;6.824;2023-02-04T10:22:54;18.48;;;5.50;;
19889;SDS011;10107;51.198;6.824;2023-02-04T10:27:05;23.05;;;6.78;;
19889;SDS011;10107;51.198;6.824;2023-02-04T10:31:29;23.73;;;7.93;;
19889;SDS011;10107;51.198;6.824;2023-02-04T10:35:32;13.15;;;5.88;;
19889;SDS011;10107;51.198;6.824;2023-02-04T10:39:45;29.63;;;10.23;;
19889;SDS011;10107;51.198;6.824;2023-02-04T10:43:53;31.48;;;10.63;;
19889;SDS011;10107;51.198;6.824;2023-02-04T10:47:57;19.95;;;8.63;;
19889;SDS011;10107;51.198;6.824;2023-02-04T10:51:59;15.77;;;7.50;;
19889;SDS011;10107;51.198;6.824;2023-02-04T10:56:03;37.38;;;12.77;;
19889;SDS011;10107;51.198;6.824;2023-02-04T11:00:14;33.30;;;12.55;;
19889;SDS011;10107;51.198;6.824;2023-02-04T11:04:18;37.90;;;15.73;;
19889;SDS011;10107;51.198;6.824;2023-02-04T11:08:20;28.40;;;12.77;;
19889;SDS011;10107;51.198;6.824;2023-02-04T11:12:34;37.63;;;14.45;;
19889;SDS011;10107;51.198;6.824;2023-02-04T11:20:50;30.33;;;13.02;;
19889;SDS011;10107;51.198;6.824;2023-02-04T11:24:54;23.75;;;11.60;;
19889;SDS011;10107;51.198;6.824;2023-02-04T11:29:09;30.30;;;14.10;;
19889;SDS011;10107;51.198;6.824;2023-02-04T11:33:35;34.67;;;14.95;;
19889;SDS011;10107;51.198;6.824;2023-02-04T11:37:40;26.55;;;11.68;;
19889;SDS011;10107;51.198;6.824;2023-02-04T11:41:44;27.25;;;11.90;;
19889;SDS011;10107;51.198;6.824;2023-02-04T11:45:46;26.05;;;13.48;;
19889;SDS011;10107;51.198;6.824;2023-02-04T11:49:51;31.05;;;14.10;;
19889;SDS011;10107;51.198;6.824;2023-02-04T11:53:57;25.40;;;11.23;;
19889;SDS011;10107;51.198;6.824;2023-02-04T11:57:59;29.70;;;12.32;;
19889;SDS011;10107;51.198;6.824;2023-02-04T12:02:04;28.58;;;11.63;;
19889;SDS011;10107;51.198;6.824;2023-02-04T12:06:21;24.38;;;11.27;;
19889;SDS011;10107;51.198;6.824;2023-02-04T12:10:25;28.35;;;11.30;;
19889;SDS011;10107;51.198;6.824;2023-02-04T12:14:28;23.83;;;10.38;;
19889;SDS011;10107;51.198;6.824;2023-02-04T12:18:32;26.52;;;9.93;;
19889;SDS011;10107;51.198;6.824;2023-02-04T12:22:35;28.77;;;11.60;;
19889;SDS011;10107;51.198;6.824;2023-02-04T12:26:38;26.35;;;10.85;;
19889;SDS011;10107;51.198;6.824;2023-02-04T12:30:40;23.63;;;10.48;;
19889;SDS011;10107;51.198;6.824;2023-02-04T12:34:42;21.98;;;9.48;;
19889;SDS011;10107;51.198;6.824;2023-02-04T12:38:44;20.88;;;8.48;;
19889;SDS011;10107;51.198;6.824;2023-02-04T12:42:47;21.55;;;8.13;;
19889;SDS011;10107;51.198;6.824;2023-02-04T12:46:49;20.38;;;9.00;;
19889;SDS011;10107;51.198;6.824;2023-02-04T12:50:50;19.92;;;8.88;;
19889;SDS011;10107;51.198;6.824;2023-02-04T12:54:53;24.88;;;8.88;;
19889;SDS011;10107;51.198;6.824;2023-02-04T12:58:56;22.65;;;8.82;;
19889;SDS011;10107;51.198;6.824;2023-02-04T13:02:58;21.90;;;6.97;;
19889;SDS011;10107;51.198;6.824;2023-02-04T13:06:59;19.50;;;7.10;;
19889;SDS011;10107;51.198;6.824;2023-02-04T13:11:01;14.48;;;7.03;;
19889;SDS011;10107;51.198;6.824;2023-02-04T13:15:04;19.63;;;6.90;;
19889;SDS011;10107;51.198;6.824;2023-02-04T13:19:07;16.35;;;6.78;;
19889;SDS011;10107;51.198;6.824;2023-02-04T13:23:08;16.27;;;6.15;;
19889;SDS011;10107;51.198;6.824;2023-02-04T13:27:10;11.85;;;5.22;;
19889;SDS011;10107;51.198;6.824;2023-02-04T13:31:14;16.23;;;6.25;;
19889;SDS011;10107;51.198;6.824;2023-02-04T13:35:15;12.47;;;4.60;;
19889;SDS011;10107;51.198;6.824;2023-02-04T13:39:18;13.27;;;4.60;;
19889;SDS011;10107;51.198;6.824;2023-02-04T13:43:20;9.82;;;3.70;;
19889;SDS011;10107;51.198;6.824;2023-02-04T13:47:24;16.92;;;5.88;;
19889;SDS011;10107;51.198;6.824;2023-02-04T13:51:25;12.75;;;9.05;;
19889;SDS011;10107;51.198;6.824;2023-02-04T13:55:27;13.07;;;4.97;;
19889;SDS011;10107;51.198;6.824;2023-02-04T13:59:29;14.35;;;4.88;;
19889;SDS011;10107;51.198;6.824;2023-02-04T14:03:32;12.27;;;4.20;;
19889;SDS011;10107;51.198;6.824;2023-02-04T14:07:34;13.00;;;3.27;;
19889;SDS011;10107;51.198;6.824;2023-02-04T14:11:36;14.43;;;3.95;;
19889;SDS011;10107;51.198;6.824;2023-02-04T14:15:37;12.07;;;3.78;;
19889;SDS011;10107;51.198;6.824;2023-02-04T14:19:42;8.17;;;2.53;;
19889;SDS011;10107;51.198;6.824;2023-02-04T14:23:43;12.13;;;3.40;;
19889;SDS011;10107;51.198;6.824;2023-02-04T14:27:45;14.00;;;4.03;;
19889;SDS011;10107;51.198;6.824;2023-02-04T14:31:46;8.60;;;3.00;;
19889;SDS011;10107;51.198;6.824;2023-02-04T14:35:50;14.68;;;4.47;;
19889;SDS011;10107;51.198;6.824;2023-02-04T14:39:51;11.80;;;3.60;;
19889;SDS011;10107;51.198;6.824;2023-02-04T14:43:53;14.13;;;4.15;;
19889;SDS011;10107;51.198;6.824;2023-02-04T14:47:54;11.82;;;3.63;;
19889;SDS011;10107;51.198;6.824;2023-02-04T14:52:00;13.02;;;4.45;;
19889;SDS011;10107;51.198;6.824;2023-02-04T14:56:04;15.55;;;5.55;;
19889;SDS011;10107;51.198;6.824;2023-02-04T15:00:06;16.27;;;4.28;;
19889;SDS011;10107;51.198;6.824;2023-02-04T15:04:08;14.10;;;4.32;;
19889;SDS011;10107;51.198;6.824;2023-02-04T15:08:11;14.25;;;4.50;;
19889;SDS011;10107;51.198;6.824;2023-02-04T15:12:13;12.33;;;4.43;;
19889;SDS011;10107;51.198;6.824;2023-02-04T15:16:15;9.85;;;3.10;;
19889;SDS011;10107;51.198;6.824;2023-02-04T15:20:16;8.32;;;3.03;;
19889;SDS011;10107;51.198;6.824;2023-02-04T15:24:19;11.60;;;3.92;;
19889;SDS011;10107;51.198;6.824;2023-02-04T15:28:21;6.20;;;2.40;;
19889;SDS011;10107;51.198;6.824;2023-02-04T15:32:23;8.30;;;2.70;;
19889;SDS011;10107;51.198;6.824;2023-02-04T15:36:25;10.43;;;3.10;;
19889;SDS011;10107;51.198;6.824;2023-02-04T15:40:28;7.22;;;2.33;;
19889;SDS011;10107;51.198;6.824;2023-02-04T15:44:30;11.07;;;2.90;;
19889;SDS011;10107;51.198;6.824;2023-02-04T15:48:31;11.98;;;3.00;;
19889;SDS011;10107;51.198;6.824;2023-02-04T15:52:33;9.55;;;2.70;;
19889;SDS011;10107;51.198;6.824;2023-02-04T15:56:36;9.68;;;2.90;;
19889;SDS011;10107;51.198;6.824;2023-02-04T16:00:38;4.90;;;2.00;;
19889;SDS011;10107;51.198;6.824;2023-02-04T16:04:40;11.52;;;3.00;;
19889;SDS011;10107;51.198;6.824;2023-02-04T16:08:44;8.77;;;2.60;;
19889;SDS011;10107;51.198;6.824;2023-02-04T16:12:47;8.52;;;2.60;;
19889;SDS011;10107;51.198;6.824;2023-02-04T16:16:50;8.55;;;2.63;;
19889;SDS011;10107;51.198;6.824;2023-02-04T16:20:52;9.27;;;3.05;;
19889;SDS011;10107;51.198;6.824;2023-02-04T16:24:53;7.38;;;2.72;;
19889;SDS011;10107;51.198;6.824;2023-02-04T16:28:56;8.93;;;2.92;;
19889;SDS011;10107;51.198;6.824;2023-02-04T16:32:58;10.93;;;3.97;;
19889;SDS011;10107;51.198;6.824;2023-02-04T16:37:00;9.60;;;3.10;;
19889;SDS011;10107;51.198;6.824;2023-02-04T16:41:02;15.73;;;4.18;;
19889;SDS011;10107;51.198;6.824;2023-02-04T16:45:05;13.43;;;4.65;;
19889;SDS011;10107;51.198;6.824;2023-02-04T16:49:07;11.15;;;3.97;;
19889;SDS011;10107;51.198;6.824;2023-02-04T16:53:09;10.10;;;3.83;;
19889;SDS011;10107;51.198;6.824;2023-02-04T16:57:15;7.82;;;4.43;;
19889;SDS011;10107;51.198;6.824;2023-02-04T17:01:19;8.40;;;3.72;;
19889;SDS011;10107;51.198;6.824;2023-02-04T17:05:21;7.40;;;4.05;;
19889;SDS011;10107;51.198;6.824;2023-02-04T17:09:22;9.48;;;3.83;;
19889;SDS011;10107;51.198;6.824;2023-02-04T17:13:24;10.63;;;4.05;;
19889;SDS011;10107;51.198;6.824;2023-02-04T17:17:27;10.73;;;4.35;;
19889;SDS011;10107;51.198;6.824;2023-02-04T17:21:29;9.00;;;4.00;;
19889;SDS011;10107;51.198;6.824;2023-02-04T17:25:31;15.00;;;6.57;;
19889;SDS011;10107;51.198;6.824;2023-02-04T17:29:33;13.80;;;6.30;;
19889;SDS011;10107;51.198;6.824;2023-02-04T17:33:36;13.52;;;6.00;;
19889;SDS011;10107;51.198;6.824;2023-02-04T17:37:37;10.43;;;5.47;;
19889;SDS011;10107;51.198;6.824;2023-02-04T17:41:39;10.23;;;4.70;;
19889;SDS011;10107;51.198;6.824;2023-02-04T17:45:40;11.73;;;4.20;;
19889;SDS011;10107;51.198;6.824;2023-02-04T17:49:43;11.90;;;4.05;;
19889;SDS011;10107;51.198;6.824;2023-02-04T17:53:45;6.97;;;2.93;;
19889;SDS011;10107;51.198;6.824;2023-02-04T17:57:47;11.35;;;3.90;;
19889;SDS011;10107;51.198;6.824;2023-02-04T18:01:48;9.40;;;3.72;;
19889;SDS011;10107;51.198;6.824;2023-02-04T18:05:52;10.65;;;3.65;;
19889;SDS011;10107;51.198;6.824;2023-02-04T18:09:57;8.32;;;3.67;;
19889;SDS011;10107;51.198;6.824;2023-02-04T18:14:10;6.90;;;3.45;;
19889;SDS011;10107;51.198;6.824;2023-02-04T18:18:20;8.88;;;3.50;;
19889;SDS011;10107;51.198;6.824;2023-02-04T18:22:24;9.88;;;4.00;;
19889;SDS011;10107;51.198;6.824;2023-02-04T18:26:27;11.10;;;3.95;;
19889;SDS011;10107;51.198;6.824;2023-02-04T18:30:29;8.32;;;3.72;;
19889;SDS011;10107;51.198;6.824;2023-02-04T18:34:33;9.63;;;4.07;;
19889;SDS011;10107;51.198;6.824;2023-02-04T18:38:37;11.25;;;4.40;;
19889;SDS011;10107;51.198;6.824;2023-02-04T18:42:42;12.07;;;5.05;;
19889;SDS011;10107;51.198;6.824;2023-02-04T18:46:45;10.82;;;4.80;;
19889;SDS011;10107;51.198;6.824;2023-02-04T18:50:48;11.53;;;5.40;;
19889;SDS011;10107;51.198;6.824;2023-02-04T18:54:52;11.47;;;5.63;;
19889;SDS011;10107;51.198;6.824;2023-02-04T18:58:55;12.98;;;5.95;;
19889;SDS011;10107;51.198;6.824;2023-02-04T19:02:58;10.77;;;5.72;;
19889;SDS011;10107;51.198;6.824;2023-02-04T19:07:04;12.25;;;6.13;;
19889;SDS011;10107;51.198;6.824;2023-02-04T19:11:20;11.30;;;5.80;;
19889;SDS011;10107;51.198;6.824;2023-02-04T19:15:33;11.35;;;6.50;;
19889;SDS011;10107;51.198;6.824;2023-02-04T19:19:39;14.55;;;6.75;;
19889;SDS011;10107;51.198;6.824;2023-02-04T19:23:44;12.90;;;7.15;;
19889;SDS011;10107;51.198;6.824;2023-02-04T19:27:49;13.30;;;6.85;;
19889;SDS011;10107;51.198;6.824;2023-02-04T19:31:54;15.23;;;7.07;;
19889;SDS011;10107;51.198;6.824;2023-02-04T19:35:59;17.75;;;7.18;;
19889;SDS011;10107;51.198;6.824;2023-02-04T19:40:25;18.02;;;7.18;;
19889;SDS011;10107;51.198;6.824;2023-02-04T19:44:38;16.45;;;7.53;;
19889;SDS011;10107;51.198;6.824;2023-02-04T19:48:42;16.95;;;7.43;;
19889;SDS011;10107;51.198;6.824;2023-02-04T19:52:45;12.88;;;7.00;;
19889;SDS011;10107;51.198;6.824;2023-02-04T19:56:48;16.98;;;8.20;;
19889;SDS011;10107;51.198;6.824;2023-02-04T20:00:56;17.98;;;7.75;;
19889;SDS011;10107;51.198;6.824;2023-02-04T20:05:00;15.48;;;8.15;;
19889;SDS011;10107;51.198;6.824;2023-02-04T20:09:03;16.35;;;8.45;;
19889;SDS011;10107;51.198;6.824;2023-02-04T20:13:10;16.52;;;8.23;;
19889;SDS011;10107;51.198;6.824;2023-02-04T20:17:31;11.13;;;6.93;;
19889;SDS011;10107;51.198;6.824;2023-02-04T20:21:37;14.23;;;7.72;;
19889;SDS011;10107;51.198;6.824;2023-02-04T20:25:40;13.85;;;7.78;;
19889;SDS011;10107;51.198;6.824;2023-02-04T20:29:47;13.65;;;7.63;;
19889;SDS011;10107;51.198;6.824;2023-02-04T20:33:51;14.83;;;7.73;;
19889;SDS011;10107;51.198;6.824;2023-02-04T20:37:56;15.82;;;8.10;;
19889;SDS011;10107;51.198;6.824;2023-02-04T20:42:13;13.75;;;7.38;;
19889;SDS011;10107;51.198;6.824;2023-02-04T20:46:21;15.57;;;7.70;;
19889;SDS011;10107;51.198;6.824;2023-02-04T20:50:36;21.40;;;10.00;;
19889;SDS011;10107;51.198;6.824;2023-02-04T20:54:40;17.48;;;8.88;;
19889;SDS011;10107;51.198;6.824;2023-02-04T20:58:42;21.80;;;10.73;;
19889;SDS011;10107;51.198;6.824;2023-02-04T21:02:45;23.85;;;12.10;;
19889;SDS011;10107;51.198;6.824;2023-02-04T21:06:49;22.08;;;11.60;;
19889;SDS011;10107;51.198;6.824;2023-02-04T21:10:51;20.98;;;11.13;;
19889;SDS011;10107;51.198;6.824;2023-02-04T21:14:53;21.75;;;10.82;;
19889;SDS011;10107;51.198;6.824;2023-02-04T21:18:55;21.77;;;9.90;;
19889;SDS011;10107;51.198;6.824;2023-02-04T21:22:59;20.77;;;10.32;;
19889;SDS011;10107;51.198;6.824;2023-02-04T21:27:01;19.38;;;9.38;;
19889;SDS011;10107;51.198;6.824;2023-02-04T21:31:03;15.40;;;8.90;;
19889;SDS011;10107;51.198;6.824;2023-02-04T21:35:05;17.08;;;9.25;;
19889;SDS011;10107;51.198;6.824;2023-02-04T21:39:08;17.70;;;10.00;;
19889;SDS011;10107;51.198;6.824;2023-02-04T21:43:10;18.38;;;9.35;;
19889;SDS011;10107;51.198;6.824;2023-02-04T21:47:12;15.88;;;10.02;;
19889;SDS011;10107;51.198;6.824;2023-02-04T21:51:16;20.48;;;11.15;;
19889;SDS011;10107;51.198;6.824;2023-02-04T21:55:19;21.15;;;10.27;;
19889;SDS011;10107;51.198;6.824;2023-02-04T21:59:21;17.75;;;9.95;;
19889;SDS011;10107;51.198;6.824;2023-02-04T22:03:24;11.50;;;7.23;;
19889;SDS011;10107;51.198;6.824;2023-02-04T22:07:26;20.90;;;10.82;;
19889;SDS011;10107;51.198;6.824;2023-02-04T22:11:29;20.58;;;10.38;;
19889;SDS011;10107;51.198;6.824;2023-02-04T22:15:30;13.15;;;6.97;;
19889;SDS011;10107;51.198;6.824;2023-02-04T22:19:32;19.23;;;9.90;;
19889;SDS011;10107;51.198;6.824;2023-02-04T22:23:34;18.80;;;10.48;;
19889;SDS011;10107;51.198;6.824;2023-02-04T22:27:37;16.20;;;10.27;;
19889;SDS011;10107;51.198;6.824;2023-02-04T22:31:39;20.00;;;10.93;;
19889;SDS011;10107;51.198;6.824;2023-02-04T22:35:43;22.38;;;11.55;;
19889;SDS011;10107;51.198;6.824;2023-02-04T22:39:45;23.95;;;12.07;;
19889;SDS011;10107;51.198;6.824;2023-02-04T22:43:48;21.70;;;12.07;;
19889;SDS011;10107;51.198;6.824;2023-02-04T22:47:50;23.55;;;11.93;;
19889;SDS011;10107;51.198;6.824;2023-02-04T22:51:51;18.88;;;11.70;;
19889;SDS011;10107;51.198;6.824;2023-02-04T22:55:53;23.92;;;11.93;;
19889;SDS011;10107;51.198;6.824;2023-02-04T22:59:56;22.40;;;11.63;;
19889;SDS011;10107;51.198;6.824;2023-02-04T23:03:58;19.10;;;11.88;;
19889;SDS011;10107;51.198;6.824;2023-02-04T23:07:59;22.38;;;12.80;;
19889;SDS011;10107;51.198;6.824;2023-02-04T23:12:01;26.20;;;12.63;;
19889;SDS011;10107;51.198;6.824;2023-02-04T23:16:13;22.25;;;12.30;;
19889;SDS011;10107;51.198;6.824;2023-02-04T23:20:15;16.92;;;8.60;;
19889;SDS011;10107;51.198;6.824;2023-02-04T23:24:17;25.00;;;13.00;;
19889;SDS011;10107;51.198;6.824;2023-02-04T23:28:19;22.23;;;12.52;;
19889;SDS011;10107;51.198;6.824;2023-02-04T23:32:22;21.58;;;12.35;;
19889;SDS011;10107;51.198;6.824;2023-02-04T23:36:26;20.80;;;12.02;;
19889;SDS011;10107;51.198;6.824;2023-02-04T23:40:27;20.75;;;11.45;;
19889;SDS011;10107;51.198;6.824;2023-02-04T23:44:29;22.70;;;11.98;;
19889;SDS011;10107;51.198;6.824;2023-02-04T23:48:32;21.00;;;11.52;;
19889;SDS011;10107;51.198;6.824;2023-02-04T23:52:34;20.10;;;10.77;;
19889;SDS011;10107;51.198;6.824;2023-02-04T23:56:36;22.23;;;12.27;;
